Time;durP1;ratioP1;P1;durP2;ratioP2;P2;SDS_P1;SDS_P2;PMS_P1;PMS_P2;Temp;Humidity;BMP_temperature;BMP_pressure;BME280_temperature;BME280_humidity;BME280_pressure;Samples;Min_cycle;Max_cycle;Signal;HPM_P1;HPM_P2
2022/11/19 00:00:51;;;;;;;75.18;21.80;;;9.40;99.90;;;;;;5079480;28;20530;-84
2022/11/19 00:03:19;;;;;;;81.00;21.37;;;9.50;99.90;;;;;;5078329;28;20171;-84
2022/11/19 00:05:47;;;;;;;75.55;22.70;;;9.40;99.90;;;;;;5081333;28;20163;-84
2022/11/19 00:08:15;;;;;;;74.15;19.05;;;9.40;99.90;;;;;;5081698;28;20222;-84
2022/11/19 00:10:41;;;;;;;77.78;24.48;;;9.40;99.90;;;;;;5083562;28;20179;-84
2022/11/19 00:13:07;;;;;;;74.30;23.00;;;9.40;99.90;;;;;;5082665;28;20164;-84
2022/11/19 00:15:34;;;;;;;80.43;24.48;;;9.40;99.90;;;;;;5082211;28;20438;-84
2022/11/19 00:18:01;;;;;;;74.28;21.10;;;9.40;99.90;;;;;;5081053;28;20164;-84
2022/11/19 00:20:27;;;;;;;74.90;21.00;;;9.40;99.90;;;;;;5081968;28;20183;-84
2022/11/19 00:22:55;;;;;;;75.60;20.88;;;9.40;99.90;;;;;;5082585;28;20600;-84
2022/11/19 00:25:22;;;;;;;74.75;21.73;;;9.40;99.90;;;;;;5082544;28;20160;-84
2022/11/19 00:27:48;;;;;;;76.07;21.92;;;9.40;99.90;;;;;;5082450;28;20172;-84
2022/11/19 00:30:14;;;;;;;74.83;25.60;;;9.40;99.90;;;;;;5081754;28;20191;-84
2022/11/19 00:32:40;;;;;;;76.55;21.10;;;9.40;99.90;;;;;;5081882;28;20167;-84
2022/11/19 00:35:06;;;;;;;76.40;22.37;;;9.40;99.90;;;;;;5083109;28;20210;-84
2022/11/19 00:37:31;;;;;;;81.73;23.83;;;9.40;99.90;;;;;;5082073;28;20191;-84
2022/11/19 00:39:57;;;;;;;76.83;22.63;;;9.40;99.90;;;;;;5082137;28;20438;-84
2022/11/19 00:42:23;;;;;;;77.03;23.87;;;9.40;99.90;;;;;;5082705;28;20167;-84
2022/11/19 00:44:49;;;;;;;80.95;23.63;;;9.30;99.90;;;;;;5082750;28;20194;-84
2022/11/19 00:47:15;;;;;;;75.00;20.60;;;9.30;99.90;;;;;;5081724;28;20183;-84
2022/11/19 00:49:41;;;;;;;78.20;24.65;;;9.40;99.90;;;;;;5082584;28;20184;-84
2022/11/19 00:52:07;;;;;;;77.90;22.40;;;9.40;99.90;;;;;;5083129;28;20186;-84
2022/11/19 00:54:32;;;;;;;81.47;23.53;;;9.40;99.90;;;;;;5083183;28;20168;-84
2022/11/19 00:56:58;;;;;;;79.73;22.20;;;9.40;99.90;;;;;;5080973;28;20249;-84
2022/11/19 00:59:24;;;;;;;76.03;21.80;;;9.40;99.90;;;;;;5081166;28;20271;-84
2022/11/19 01:01:49;;;;;;;77.00;21.43;;;9.40;99.90;;;;;;5081976;28;20160;-84
2022/11/19 01:04:15;;;;;;;79.67;21.90;;;9.40;99.90;;;;;;5081026;28;20171;-84
2022/11/19 01:06:41;;;;;;;75.80;22.57;;;9.40;99.90;;;;;;5080857;28;20168;-84
2022/11/19 01:09:07;;;;;;;75.77;21.93;;;9.40;99.90;;;;;;5082474;28;20420;-84
2022/11/19 01:11:34;;;;;;;75.67;20.33;;;9.40;99.90;;;;;;5081986;28;20175;-84
2022/11/19 01:14:01;;;;;;;77.40;21.10;;;9.50;99.90;;;;;;5081166;28;20178;-84
2022/11/19 01:16:36;;;;;;;77.13;24.85;;;9.50;99.90;;;;;;5081847;28;20270;-84
2022/11/19 01:19:04;;;;;;;75.85;19.65;;;9.50;99.90;;;;;;5082784;28;20159;-84
2022/11/19 01:21:32;;;;;;;72.85;16.85;;;9.60;99.90;;;;;;5080962;28;20557;-84
2022/11/19 01:23:58;;;;;;;75.18;19.13;;;9.50;99.90;;;;;;5082263;28;20190;-84
2022/11/19 01:26:24;;;;;;;76.87;20.50;;;9.50;99.90;;;;;;5081009;28;20168;-84
2022/11/19 01:28:50;;;;;;;82.05;18.17;;;9.50;99.90;;;;;;5082067;28;20456;-84
2022/11/19 01:31:28;;;;;;;86.60;19.90;;;9.60;99.90;;;;;;5081771;28;20179;-84
2022/11/19 01:33:54;;;;;;;74.70;18.25;;;9.50;99.90;;;;;;5081751;28;20246;-84
2022/11/19 01:36:23;;;;;;;72.93;17.35;;;9.60;99.90;;;;;;5081288;28;20322;-84
2022/11/19 01:38:49;;;;;;;75.88;18.50;;;9.60;99.90;;;;;;5081624;28;20520;-84
2022/11/19 01:41:20;;;;;;;81.40;25.48;;;9.50;99.90;;;;;;5081305;28;20176;-84
2022/11/19 01:43:57;;;;;;;78.28;21.15;;;9.50;99.90;;;;;;5081363;28;20579;-84
2022/11/19 01:46:26;;;;;;;75.55;21.55;;;9.50;99.90;;;;;;5080099;28;20235;-84
2022/11/19 01:49:01;;;;;;;80.60;20.92;;;9.50;99.90;;;;;;5081090;28;20167;-84
2022/11/19 01:51:32;;;;;;;76.55;21.30;;;9.50;99.90;;;;;;5080398;28;20220;-84
2022/11/19 01:54:01;;;;;;;75.22;18.88;;;9.50;99.90;;;;;;5080151;28;20168;-84
2022/11/19 01:56:29;;;;;;;77.32;22.60;;;9.50;99.90;;;;;;5081962;28;20192;-84
2022/11/19 01:59:01;;;;;;;78.32;21.05;;;9.50;99.90;;;;;;5082439;28;20259;-84
2022/11/19 02:01:30;;;;;;;76.50;18.70;;;9.50;99.90;;;;;;5081846;28;20231;-84
2022/11/19 02:03:59;;;;;;;78.38;20.25;;;9.60;99.90;;;;;;5081094;28;20168;-84
2022/11/19 02:06:28;;;;;;;77.07;20.45;;;9.60;99.90;;;;;;5080733;28;20164;-85
2022/11/19 02:08:54;;;;;;;76.00;22.08;;;9.60;99.90;;;;;;5082182;28;20167;-85
2022/11/19 02:11:37;;;;;;;80.57;19.60;;;9.50;99.90;;;;;;5081998;28;20541;-85
2022/11/19 02:14:43;;;;;;;81.35;21.52;;;9.50;99.90;;;;;;5080305;28;20179;-85
2022/11/19 02:17:35;;;;;;;75.70;18.65;;;9.50;99.90;;;;;;5081601;28;20301;-85
2022/11/19 02:20:09;;;;;;;75.70;16.80;;;9.60;99.90;;;;;;5074463;28;20203;-85
2022/11/19 02:22:41;;;;;;;75.20;18.13;;;9.60;99.90;;;;;;5080725;28;20185;-86
2022/11/19 02:25:50;;;;;;;74.75;21.23;;;9.70;99.90;;;;;;5081483;28;20160;-86
2022/11/19 02:28:40;;;;;;;79.03;20.02;;;9.50;99.90;;;;;;5081813;28;20144;-85
2022/11/19 02:31:15;;;;;;;76.47;19.35;;;9.50;99.90;;;;;;5080668;28;20190;-85
2022/11/19 02:34:27;;;;;;;76.95;19.63;;;9.50;99.90;;;;;;5082246;28;20144;-85
2022/11/19 02:37:16;;;;;;;74.55;19.55;;;9.50;99.90;;;;;;5076407;28;20199;-85
2022/11/19 02:40:16;;;;;;;75.18;20.58;;;9.40;99.90;;;;;;5081824;28;20182;-85
2022/11/19 02:42:58;;;;;;;76.40;19.92;;;9.50;99.90;;;;;;5042961;28;20202;-85
2022/11/19 02:45:42;;;;;;;77.75;18.20;;;9.50;99.90;;;;;;5080349;28;20155;-85
2022/11/19 02:48:16;;;;;;;76.03;20.00;;;9.50;99.90;;;;;;5081358;28;20152;-84
2022/11/19 02:50:49;;;;;;;76.13;20.55;;;9.50;99.90;;;;;;5081038;28;20218;-85
2022/11/19 02:53:15;;;;;;;79.32;21.77;;;9.50;99.90;;;;;;5081394;28;20148;-85
2022/11/19 02:56:09;;;;;;;78.60;20.67;;;9.50;99.90;;;;;;5081617;28;20246;-85
2022/11/19 03:06:41;;;;;;;78.25;20.80;;;9.40;99.90;;;;;;5081272;28;20201;-85
2022/11/19 03:09:06;;;;;;;76.60;18.40;;;9.40;99.90;;;;;;5080676;28;20684;-85
2022/11/19 03:11:32;;;;;;;76.80;20.87;;;9.40;99.90;;;;;;5080708;28;20160;-85
2022/11/19 03:16:53;;;;;;;75.97;19.05;;;9.40;99.90;;;;;;5081196;28;20218;-85
2022/11/19 03:19:42;;;;;;;76.00;20.42;;;9.50;99.90;;;;;;5079695;28;20188;-85
2022/11/19 03:22:28;;;;;;;78.15;20.92;;;9.50;99.90;;;;;;5080960;28;20144;-85
2022/11/19 03:25:02;;;;;;;78.35;17.83;;;9.60;99.90;;;;;;5079780;28;20152;-85
2022/11/19 03:27:42;;;;;;;74.53;18.38;;;9.50;99.90;;;;;;5081492;28;20148;-85
2022/11/19 03:30:10;;;;;;;75.38;19.95;;;9.50;99.90;;;;;;5080429;28;20187;-85
2022/11/19 03:32:47;;;;;;;78.28;22.35;;;9.40;99.90;;;;;;5080161;28;20579;-85
2022/11/19 03:35:21;;;;;;;75.03;18.65;;;9.40;99.90;;;;;;5081461;28;20152;-85
2022/11/19 03:37:51;;;;;;;77.07;20.20;;;9.40;99.90;;;;;;5080582;28;20164;-85
2022/11/19 03:40:19;;;;;;;78.53;20.45;;;9.50;99.90;;;;;;5084296;28;20188;-85
2022/11/19 03:42:49;;;;;;;76.93;21.27;;;9.50;99.90;;;;;;5083938;28;20194;-85
2022/11/19 03:45:21;;;;;;;78.13;20.08;;;9.50;99.90;;;;;;5083485;28;20660;-85
2022/11/19 03:47:48;;;;;;;79.18;21.50;;;9.50;99.90;;;;;;5083776;28;20649;-85
2022/11/19 03:50:23;;;;;;;76.82;21.75;;;9.50;99.90;;;;;;5084834;28;20194;-85
2022/11/19 03:52:49;;;;;;;72.95;19.48;;;9.60;99.90;;;;;;5083430;28;20159;-85
2022/11/19 03:55:15;;;;;;;71.13;18.80;;;9.50;99.90;;;;;;5083596;28;20164;-85
2022/11/19 03:57:42;;;;;;;72.47;22.10;;;9.00;99.90;;;;;;5083894;28;20187;-85
2022/11/19 04:00:08;;;;;;;70.75;15.25;;;8.60;99.90;;;;;;5083766;28;20671;-86
2022/11/19 04:02:34;;;;;;;68.45;11.18;;;8.50;99.90;;;;;;5083681;28;20168;-85
2022/11/19 04:05:00;;;;;;;69.23;13.17;;;8.50;99.90;;;;;;5084032;28;20198;-85
2022/11/19 04:07:29;;;;;;;74.13;14.83;;;8.40;99.90;;;;;;5083021;28;20410;-85
2022/11/19 04:09:55;;;;;;;70.50;14.75;;;8.30;99.90;;;;;;5083929;28;20425;-86
2022/11/19 04:12:23;;;;;;;67.50;12.40;;;8.00;99.90;;;;;;5083294;28;20179;-84
2022/11/19 04:14:49;;;;;;;69.07;15.00;;;7.90;99.90;;;;;;5084797;28;20194;-86
2022/11/19 04:17:16;;;;;;;70.03;14.38;;;7.70;99.90;;;;;;5085012;28;20191;-85
2022/11/19 04:19:42;;;;;;;68.97;10.75;;;7.50;99.90;;;;;;5083764;28;20179;-85
2022/11/19 04:22:08;;;;;;;68.68;16.35;;;7.40;99.90;;;;;;5083192;28;20178;-86
2022/11/19 04:24:34;;;;;;;69.18;17.55;;;7.30;99.90;;;;;;5084108;28;20168;-86
2022/11/19 04:27:00;;;;;;;69.87;19.43;;;7.10;99.90;;;;;;5084679;28;20237;-86
2022/11/19 04:29:26;;;;;;;70.87;19.63;;;6.90;99.90;;;;;;5083565;28;20184;-85
2022/11/19 04:31:51;;;;;;;69.63;18.13;;;6.90;99.90;;;;;;5082443;28;20670;-85
2022/11/19 04:34:17;;;;;;;68.40;14.70;;;6.90;99.90;;;;;;5084164;28;20194;-85
2022/11/19 04:36:43;;;;;;;73.40;29.63;;;7.00;99.90;;;;;;5084276;28;20247;-86
2022/11/19 04:39:11;;;;;;;68.27;14.27;;;7.00;99.90;;;;;;5084003;28;20410;-85
2022/11/19 04:41:38;;;;;;;68.50;13.27;;;6.90;99.90;;;;;;5082922;28;20459;-85
2022/11/19 04:44:04;;;;;;;70.00;15.95;;;6.90;99.90;;;;;;5084561;28;20641;-87
2022/11/19 04:46:30;;;;;;;67.63;12.27;;;6.90;99.90;;;;;;5083516;28;20216;-86
2022/11/19 04:48:56;;;;;;;67.72;13.32;;;6.70;99.90;;;;;;5084579;28;20477;-85
2022/11/19 04:51:22;;;;;;;68.13;12.25;;;6.60;99.90;;;;;;5083997;28;20168;-85
2022/11/19 04:53:48;;;;;;;76.87;27.30;;;6.50;99.90;;;;;;5085299;28;20502;-86
2022/11/19 04:56:13;;;;;;;71.67;23.67;;;6.50;99.90;;;;;;5084073;28;20442;-85
2022/11/19 04:58:39;;;;;;;69.30;17.70;;;6.50;99.90;;;;;;5084644;28;20164;-85
2022/11/19 05:01:05;;;;;;;69.87;17.67;;;6.40;99.90;;;;;;5083496;28;20279;-86
2022/11/19 05:03:31;;;;;;;71.20;21.83;;;6.30;99.90;;;;;;5082862;28;20167;-86
2022/11/19 05:05:57;;;;;;;72.15;22.48;;;6.20;99.90;;;;;;5084644;28;20398;-86
2022/11/19 05:08:23;;;;;;;71.50;20.10;;;6.20;99.90;;;;;;5082910;28;20164;-85
2022/11/19 05:10:48;;;;;;;72.90;19.13;;;6.10;99.90;;;;;;5083746;28;20429;-85
2022/11/19 05:13:14;;;;;;;71.30;19.63;;;6.10;99.90;;;;;;5083050;28;20168;-85
2022/11/19 05:15:40;;;;;;;69.70;15.00;;;6.10;99.90;;;;;;5083089;28;20233;-85
2022/11/19 05:18:06;;;;;;;72.27;20.73;;;6.10;99.90;;;;;;5081603;28;20174;-85
2022/11/19 05:20:31;;;;;;;85.27;44.47;;;6.00;99.90;;;;;;5082518;28;20185;-85
2022/11/19 05:22:57;;;;;;;70.67;17.90;;;5.80;99.90;;;;;;5081165;28;20783;-86
2022/11/19 05:25:23;;;;;;;77.47;35.23;;;5.80;99.90;;;;;;5081370;28;20164;-86
2022/11/19 05:27:48;;;;;;;72.50;20.30;;;5.70;99.90;;;;;;5083005;28;20685;-85
2022/11/19 05:30:15;;;;;;;72.60;19.10;;;5.70;99.90;;;;;;5081179;28;20199;-85
2022/11/19 05:32:41;;;;;;;71.00;19.98;;;5.70;99.90;;;;;;5082591;28;20202;-85
2022/11/19 05:35:07;;;;;;;72.27;20.13;;;5.80;99.90;;;;;;5082022;28;20176;-85
2022/11/19 05:37:33;;;;;;;71.07;16.83;;;5.70;99.90;;;;;;5080340;28;20556;-85
2022/11/19 05:39:59;;;;;;;70.30;15.87;;;5.80;99.90;;;;;;5081664;28;20213;-85
2022/11/19 05:42:28;;;;;;;69.87;13.50;;;5.90;99.90;;;;;;5156464;22;20783;-87
2022/11/19 05:44:53;;;;;;;69.60;12.00;;;6.00;99.90;;;;;;5074370;28;20537;-89
2022/11/19 05:47:19;;;;;;;70.77;14.13;;;6.00;99.90;;;;;;5056562;28;20167;-88
2022/11/19 05:49:52;;;;;;;69.40;12.30;;;5.90;99.90;;;;;;5074159;28;20203;-88
2022/11/19 05:52:21;;;;;;;69.65;13.55;;;5.90;99.90;;;;;;5073195;28;20445;-88
2022/11/19 05:54:47;;;;;;;69.80;11.75;;;5.90;99.90;;;;;;5074284;28;20164;-88
2022/11/19 05:57:18;;;;;;;70.90;15.47;;;5.80;99.90;;;;;;5074301;28;20833;-88
2022/11/19 05:59:51;;;;;;;79.78;25.73;;;5.70;99.90;;;;;;5074332;28;20187;-88
2022/11/19 06:02:22;;;;;;;73.15;15.63;;;5.60;99.90;;;;;;5072482;28;20696;-88
2022/11/19 06:05:00;;;;;;;71.80;13.68;;;5.50;99.90;;;;;;5072834;28;20172;-88
2022/11/19 06:07:29;;;;;;;89.55;44.90;;;5.40;99.90;;;;;;5072943;28;20537;-89
2022/11/19 06:09:57;;;;;;;76.45;22.77;;;5.30;99.90;;;;;;5073248;28;20196;-89
2022/11/19 06:12:25;;;;;;;78.00;28.40;;;5.20;99.90;;;;;;5072173;28;20184;-88
2022/11/19 06:14:51;;;;;;;74.85;16.63;;;5.20;99.90;;;;;;5074353;28;20166;-88
2022/11/19 06:17:17;;;;;;;76.97;24.67;;;5.20;99.90;;;;;;5074292;28;20590;-88
2022/11/19 06:19:48;;;;;;;78.07;25.53;;;5.10;99.90;;;;;;5072500;28;20278;-88
2022/11/19 06:22:24;;;;;;;74.80;21.33;;;5.10;99.90;;;;;;5074188;28;20149;-88
2022/11/19 06:24:50;;;;;;;74.57;18.30;;;5.10;99.90;;;;;;5073164;28;20182;-88
2022/11/19 06:27:16;;;;;;;74.77;18.47;;;5.10;99.90;;;;;;5073925;28;20167;-88
2022/11/19 06:29:50;;;;;;;90.60;39.60;;;5.30;99.90;;;;;;5073772;28;20425;-88
2022/11/19 06:32:22;;;;;;;77.57;16.55;;;5.30;99.90;;;;;;5074182;28;20174;-88
2022/11/19 06:35:14;;;;;;;77.20;17.33;;;5.30;99.90;;;;;;5073734;28;20706;-88
2022/11/19 06:37:39;;;;;;;80.15;25.63;;;5.40;99.90;;;;;;5063241;28;20216;-88
2022/11/19 06:40:06;;;;;;;75.17;16.47;;;5.30;99.90;;;;;;5073754;28;20210;-89
2022/11/19 06:42:37;;;;;;;75.05;15.90;;;5.30;99.90;;;;;;5073511;28;20434;-88
2022/11/19 06:45:09;;;;;;;79.40;22.10;;;5.20;99.90;;;;;;5073639;28;20156;-88
2022/11/19 06:47:49;;;;;;;75.72;15.00;;;5.20;99.90;;;;;;5072775;28;20167;-88
2022/11/19 06:50:17;;;;;;;77.88;17.23;;;5.00;99.90;;;;;;5072660;28;20229;-88
2022/11/19 06:52:52;;;;;;;76.40;19.83;;;4.80;99.90;;;;;;5073254;28;20175;-88
2022/11/19 06:55:18;;;;;;;76.88;19.25;;;4.80;99.90;;;;;;5073603;28;20633;-88
2022/11/19 06:57:43;;;;;;;77.63;21.83;;;4.80;99.90;;;;;;5073640;28;20222;-88
2022/11/19 07:00:10;;;;;;;77.97;20.00;;;4.90;99.90;;;;;;5071966;28;20661;-88
2022/11/19 07:02:39;;;;;;;89.68;36.97;;;4.70;99.90;;;;;;5072271;28;20164;-88
2022/11/19 07:05:06;;;;;;;82.88;26.20;;;4.70;99.90;;;;;;5073263;28;20162;-89
2022/11/19 07:07:36;;;;;;;95.80;47.85;;;4.60;99.90;;;;;;5072312;28;20175;-89
2022/11/19 07:10:01;;;;;;;83.50;21.80;;;4.60;99.90;;;;;;5072357;28;20187;-88
2022/11/19 07:12:30;;;;;;;80.13;20.63;;;4.70;99.90;;;;;;5072628;28;20251;-88
2022/11/19 07:14:58;;;;;;;79.20;19.83;;;4.70;99.90;;;;;;5072035;28;20245;-88
2022/11/19 07:17:24;;;;;;;80.97;21.33;;;4.60;99.90;;;;;;5073830;28;20187;-88
2022/11/19 07:19:50;;;;;;;80.17;23.07;;;4.60;99.90;;;;;;5072316;28;20232;-89
2022/11/19 07:22:24;;;;;;;84.13;21.20;;;4.60;99.90;;;;;;5071811;28;20635;-88
2022/11/19 07:25:07;;;;;;;83.30;22.00;;;4.50;99.90;;;;;;5071866;28;20159;-88
2022/11/19 07:27:38;;;;;;;83.07;23.77;;;4.50;99.90;;;;;;5073379;28;20156;-88
2022/11/19 07:30:10;;;;;;;84.15;24.58;;;4.50;99.90;;;;;;5072070;28;20188;-88
2022/11/19 07:32:38;;;;;;;82.95;23.58;;;4.60;99.90;;;;;;5072087;28;20168;-88
2022/11/19 07:35:14;;;;;;;82.45;21.83;;;4.70;99.90;;;;;;5072250;28;20192;-88
2022/11/19 07:37:57;;;;;;;80.60;20.98;;;4.70;99.90;;;;;;5071375;28;20214;-88
2022/11/19 07:40:22;;;;;;;80.70;20.13;;;4.60;99.90;;;;;;5100735;22;20656;-88
2022/11/19 07:42:52;;;;;;;84.13;22.40;;;4.70;99.90;;;;;;5075045;28;20209;-88
2022/11/19 07:45:21;;;;;;;83.57;20.75;;;4.80;99.90;;;;;;5074972;28;20194;-88
2022/11/19 07:47:48;;;;;;;82.75;24.70;;;4.70;99.90;;;;;;5075116;28;20277;-88
2022/11/19 07:50:14;;;;;;;89.50;33.78;;;4.70;99.90;;;;;;5093257;28;20179;-88
2022/11/19 07:56:07;;;;;;;86.38;28.77;;;4.60;99.90;;;;;;5009312;28;20201;-89
2022/11/19 07:58:45;;;;;;;82.50;23.60;;;4.60;99.90;;;;;;5086275;28;20641;-88
2022/11/19 08:01:17;;;;;;;85.57;25.23;;;4.50;99.90;;;;;;5091579;28;20186;-88
2022/11/19 08:03:45;;;;;;;83.78;23.80;;;4.50;99.90;;;;;;5091612;28;20162;-88
2022/11/19 08:06:14;;;;;;;85.85;28.30;;;4.60;99.90;;;;;;5092277;28;20171;-88
2022/11/19 08:08:41;;;;;;;87.07;24.50;;;4.60;99.90;;;;;;5091516;28;20185;-88
2022/11/19 08:11:27;;;;;;;85.03;27.02;;;4.60;99.90;;;;;;5092673;28;20273;-89
2022/11/19 08:13:57;;;;;;;84.88;25.27;;;4.60;99.90;;;;;;5091699;28;20258;-88
2022/11/19 08:19:24;;;;;;;83.03;20.85;;;4.60;99.90;;;;;;5093141;28;20182;-88
2022/11/19 08:22:29;;;;;;;85.00;21.90;;;4.60;99.90;;;;;;5098229;28;20158;-88
2022/11/19 08:25:00;;;;;;;87.65;24.88;;;4.70;99.90;;;;;;5056170;28;20211;-87
2022/11/19 08:27:53;;;;;;;;;;;;;;;;;;;;;
2022/11/19 08:30:58;;;;;;;120.53;99.80;;;4.60;99.90;;;;;;5059291;28;20252;-87
2022/11/19 08:33:44;;;;;;;85.07;22.92;;;4.60;99.90;;;;;;5100010;28;20217;-88
2022/11/19 08:37:09;;;;;;;89.18;28.02;;;4.70;99.90;;;;;;5102403;28;20242;-88
2022/11/19 08:40:04;;;;;;;84.25;24.05;;;4.50;99.90;;;;;;5102899;28;20269;-87
2022/11/19 08:45:58;;;;;;;;;;;;;;;;;;;;;
2022/11/19 08:52:05;;;;;;;94.93;55.38;;;4.70;99.90;;;;;;5431233;22;20316;-87
2022/11/19 08:55:27;;;;;;;80.95;19.90;;;4.60;99.90;;;;;;5100834;28;20215;-87
2022/11/19 08:58:13;;;;;;;90.70;22.98;;;4.70;99.90;;;;;;5085928;28;20240;-88
2022/11/19 09:01:18;;;;;;;84.20;19.52;;;4.70;99.90;;;;;;5101557;28;20248;-87
2022/11/19 09:03:44;;;;;;;81.97;19.00;;;4.70;99.90;;;;;;5050974;28;20179;-87
2022/11/19 09:06:33;;;;;;;81.25;18.85;;;4.80;99.90;;;;;;5100588;28;20189;-87
2022/11/19 09:09:24;;;;;;;;;;;;;;;;;;;;;
2022/11/19 09:12:40;;;;;;;92.70;35.95;;;4.90;99.90;;;;;;5093047;28;20678;-85
2022/11/19 09:18:43;;;;;;;;;;;;;;;;;;;;;
2022/11/19 09:22:25;;;;;;;;;;;;;;;;;;;;;
2022/11/19 09:25:28;;;;;;;82.90;17.83;;;4.70;99.90;;;;;;5038505;28;20250;-87
2022/11/19 09:35:24;;;;;;;83.07;30.52;;;4.90;99.90;;;;;;5038524;28;20192;-87
2022/11/19 09:38:21;;;;;;;80.72;21.63;;;4.90;99.90;;;;;;5039580;28;20686;-87
2022/11/19 09:56:01;;;;;;;81.85;21.20;;;4.90;99.90;;;;;;4918718;29;20594;-87
2022/11/19 09:59:43;;;;;;;80.78;18.48;;;4.80;99.90;;;;;;4856364;29;20219;-87
2022/11/19 10:02:30;;;;;;;79.47;17.35;;;4.70;99.90;;;;;;4927356;29;20184;-87
2022/11/19 10:04:59;;;;;;;80.18;20.42;;;4.70;99.90;;;;;;4963178;28;20182;-87
2022/11/19 10:08:10;;;;;;;82.93;20.75;;;4.70;99.90;;;;;;5040404;28;20186;-87
2022/11/19 10:12:24;;;;;;;;;;;;;;;;;;;;;
2022/11/19 10:14:46;;;;;;;79.70;19.60;;;4.80;99.90;;;;;;5081165;28;20540;-87
2022/11/19 10:17:56;;;;;;;81.95;20.02;;;4.70;99.90;;;;;;5096441;28;20199;-87
2022/11/19 10:20:55;;;;;;;78.78;18.83;;;4.90;99.90;;;;;;5096928;28;20187;-88
2022/11/19 10:23:54;;;;;;;80.88;20.83;;;4.80;99.90;;;;;;5095016;28;20641;-87
2022/11/19 10:27:21;;;;;;;;;;;;;;;;;;;;;
2022/11/19 10:30:25;;;;;;;81.40;17.13;;;5.00;99.90;;;;;;5095923;28;20193;-87
2022/11/19 10:33:40;;;;;;;;;;;;;;;;;;;;;
2022/11/19 10:36:55;;;;;;;;;;;;;;;;;;;;;
2022/11/19 10:39:47;;;;;;;77.93;16.35;;;5.00;99.90;;;;;;5033514;28;20205;-87
2022/11/19 10:42:42;;;;;;;78.70;16.17;;;5.10;99.90;;;;;;5034465;28;20658;-87
2022/11/19 10:51:45;;;;;;;76.90;15.77;;;5.00;99.90;;;;;;5081294;22;20227;-87
2022/11/19 10:54:40;;;;;;;79.05;14.82;;;5.00;99.90;;;;;;5090091;28;20266;-87
2022/11/19 10:57:35;;;;;;;81.68;15.80;;;5.20;99.90;;;;;;4995711;28;20678;-87
2022/11/19 11:00:01;;;;;;;90.57;17.48;;;5.20;99.90;;;;;;5062069;28;20203;-88
2022/11/19 11:03:09;;;;;;;80.40;20.20;;;5.30;99.90;;;;;;5090800;28;20214;-87
2022/11/19 11:05:54;;;;;;;77.50;15.63;;;5.30;99.90;;;;;;5059475;28;20467;-88
2022/11/19 11:08:23;;;;;;;79.75;18.25;;;5.10;99.90;;;;;;5075260;28;20550;-88
2022/11/19 11:23:31;;;;;;;82.47;19.52;;;4.90;99.90;;;;;;5094192;28;20173;-88
2022/11/19 11:26:59;;;;;;;79.60;16.35;;;5.00;99.90;;;;;;5052072;28;20176;-88
2022/11/19 11:33:49;;;;;;;78.90;20.05;;;5.00;99.90;;;;;;4972240;28;20596;-88
2022/11/19 11:40:01;;;;;;;78.90;19.40;;;4.90;99.90;;;;;;4987890;28;20664;-88
2022/11/19 11:44:58;;;;;;;80.73;18.97;;;5.10;99.90;;;;;;5182960;22;20230;-85
2022/11/19 11:47:28;;;;;;;77.80;17.98;;;5.20;99.90;;;;;;5099577;28;20155;-85
2022/11/19 11:50:07;;;;;;;79.45;17.25;;;5.20;99.90;;;;;;5099209;28;20672;-85
2022/11/19 11:52:33;;;;;;;79.07;19.67;;;5.20;99.90;;;;;;5097980;28;20181;-86
2022/11/19 11:55:05;;;;;;;78.57;13.77;;;5.20;99.90;;;;;;5097595;28;20258;-85
2022/11/19 11:57:33;;;;;;;79.57;13.27;;;5.20;99.90;;;;;;5098692;28;20602;-85
2022/11/19 12:00:11;;;;;;;76.93;13.98;;;5.20;99.90;;;;;;5099093;28;20529;-86
2022/11/19 12:02:37;;;;;;;75.18;11.32;;;5.20;99.90;;;;;;5102599;28;20485;-86
2022/11/19 12:05:06;;;;;;;79.40;17.45;;;5.10;99.90;;;;;;5103528;28;20202;-87
2022/11/19 12:07:37;;;;;;;76.40;11.98;;;5.30;99.90;;;;;;5102794;28;20170;-85
2022/11/19 12:10:24;;;;;;;76.10;14.43;;;5.30;99.90;;;;;;5103192;28;20183;-85
2022/11/19 12:12:58;;;;;;;76.35;12.27;;;5.40;99.90;;;;;;5102038;28;20267;-85
2022/11/19 12:15:53;;;;;;;80.20;15.52;;;5.40;99.90;;;;;;5101783;28;20170;-86
2022/11/19 12:18:36;;;;;;;76.72;13.23;;;5.40;99.90;;;;;;5100730;28;20254;-86
2022/11/19 12:21:10;;;;;;;76.00;11.82;;;5.60;99.90;;;;;;5102963;28;20213;-86
2022/11/19 12:23:56;;;;;;;76.38;12.40;;;5.70;99.90;;;;;;5105072;28;20163;-86
2022/11/19 12:26:46;;;;;;;77.05;12.45;;;5.40;99.90;;;;;;5104580;28;20148;-86
2022/11/19 12:29:31;;;;;;;74.38;11.02;;;5.20;99.90;;;;;;5104612;28;20633;-85
2022/11/19 12:32:12;;;;;;;77.82;15.68;;;5.20;99.90;;;;;;5103098;28;20183;-85
2022/11/19 12:35:22;;;;;;;76.45;12.60;;;5.20;99.90;;;;;;5103538;28;20689;-86
2022/11/19 12:38:22;;;;;;;80.10;11.90;;;5.30;99.90;;;;;;5092654;28;20535;-85
2022/11/19 12:41:05;;;;;;;87.85;28.13;;;5.40;99.90;;;;;;5103887;28;20210;-85
2022/11/19 12:43:46;;;;;;;75.78;12.45;;;5.40;99.90;;;;;;5103590;28;20182;-85
2022/11/19 12:46:28;;;;;;;80.03;14.05;;;5.20;99.90;;;;;;5104584;28;20147;-85
2022/11/19 12:49:15;;;;;;;77.60;12.00;;;5.10;99.90;;;;;;5102861;28;20620;-85
2022/11/19 12:52:02;;;;;;;76.05;11.88;;;5.30;99.90;;;;;;5102954;28;20249;-85
2022/11/19 12:54:36;;;;;;;83.15;13.80;;;5.20;99.90;;;;;;5103415;28;20493;-85
2022/11/19 12:57:36;;;;;;;78.28;13.15;;;5.20;99.90;;;;;;5102195;28;20191;-85
2022/11/19 13:00:17;;;;;;;77.40;13.60;;;5.20;99.90;;;;;;5101960;28;20183;-85
2022/11/19 13:03:07;;;;;;;78.88;14.38;;;5.30;99.90;;;;;;5103384;28;20614;-85
2022/11/19 13:05:48;;;;;;;81.43;21.15;;;5.40;99.90;;;;;;5102649;28;20516;-85
2022/11/19 13:08:29;;;;;;;76.07;11.68;;;5.30;99.90;;;;;;5103510;28;20531;-85
2022/11/19 13:11:15;;;;;;;77.88;12.50;;;5.20;99.90;;;;;;5102751;28;20266;-85
2022/11/19 13:13:46;;;;;;;76.28;11.35;;;5.10;99.90;;;;;;5100741;28;20167;-85
2022/11/19 13:16:18;;;;;;;74.35;11.90;;;5.10;99.90;;;;;;5103279;28;20586;-85
2022/11/19 13:18:47;;;;;;;74.85;12.25;;;5.10;99.90;;;;;;5102006;28;20173;-85
2022/11/19 13:21:49;;;;;;;76.93;13.55;;;5.10;99.90;;;;;;5101496;28;20187;-85
2022/11/19 13:24:38;;;;;;;78.03;13.77;;;5.10;99.90;;;;;;5069287;28;20175;-84
2022/11/19 13:27:08;;;;;;;77.13;12.80;;;5.20;99.90;;;;;;5102276;28;20167;-84
2022/11/19 13:29:56;;;;;;;76.80;12.60;;;5.30;99.90;;;;;;5102726;28;20732;-85
2022/11/19 13:32:39;;;;;;;80.38;12.98;;;5.40;99.90;;;;;;5101501;28;20221;-84
2022/11/19 13:35:24;;;;;;;81.15;12.95;;;5.40;99.90;;;;;;5102656;28;20162;-84
2022/11/19 13:38:22;;;;;;;80.15;13.73;;;5.30;99.90;;;;;;5102364;28;20221;-84
2022/11/19 13:41:24;;;;;;;76.00;12.50;;;5.30;99.90;;;;;;5088099;28;20221;-86
2022/11/19 13:46:40;;;;;;;79.18;13.65;;;5.10;99.90;;;;;;5103427;28;20150;-86
2022/11/19 13:49:17;;;;;;;75.57;11.68;;;5.10;99.90;;;;;;5103050;28;20171;-86
2022/11/19 13:51:55;;;;;;;79.35;13.80;;;5.30;99.90;;;;;;5104260;28;20207;-86
2022/11/19 13:54:28;;;;;;;75.72;11.73;;;5.40;99.90;;;;;;5102724;28;20163;-86
2022/11/19 13:56:57;;;;;;;77.03;12.85;;;5.50;99.90;;;;;;5104112;28;20194;-86
2022/11/19 13:59:25;;;;;;;85.32;16.15;;;5.60;99.90;;;;;;5101093;28;20183;-86
2022/11/19 14:02:11;;;;;;;81.38;13.77;;;5.60;99.90;;;;;;5102980;28;20165;-86
2022/11/19 14:04:43;;;;;;;77.13;11.80;;;5.60;99.90;;;;;;5102798;28;20587;-86
2022/11/19 14:07:34;;;;;;;75.20;11.73;;;5.60;99.90;;;;;;5102257;28;20162;-86
2022/11/19 14:10:31;;;;;;;79.25;11.73;;;5.50;99.90;;;;;;5100177;28;20183;-86
2022/11/19 14:13:13;;;;;;;77.43;11.77;;;5.30;99.90;;;;;;5068560;28;20179;-86
2022/11/19 14:27:31;;;;;;;83.43;13.40;;;5.10;99.90;;;;;;5102645;28;20185;-86
2022/11/19 14:30:10;;;;;;;77.75;14.10;;;5.10;99.90;;;;;;5101183;28;20221;-86
2022/11/19 14:32:46;;;;;;;77.90;12.60;;;5.10;99.90;;;;;;5101596;28;20224;-86
2022/11/19 14:35:24;;;;;;;77.65;12.95;;;5.10;99.90;;;;;;5100944;28;20171;-86
2022/11/19 14:37:53;;;;;;;78.50;12.77;;;5.10;99.90;;;;;;5101387;28;20191;-86
2022/11/19 14:40:32;;;;;;;76.40;13.05;;;5.00;99.90;;;;;;5101774;28;20198;-86
2022/11/19 14:46:09;;;;;;;80.25;13.40;;;5.20;99.90;;;;;;5100770;28;20166;-86
2022/11/19 14:48:37;;;;;;;78.05;12.50;;;5.20;99.90;;;;;;5100168;28;20167;-86
2022/11/19 14:51:15;;;;;;;84.93;15.52;;;5.20;99.90;;;;;;5100205;28;20184;-86
2022/11/19 14:53:48;;;;;;;78.78;13.60;;;5.20;99.90;;;;;;5100488;28;20167;-86
2022/11/19 14:56:18;;;;;;;83.35;16.35;;;5.10;99.90;;;;;;5101661;28;20280;-86
2022/11/19 14:59:27;;;;;;;85.50;16.33;;;5.20;99.90;;;;;;5101609;28;20160;-86
2022/11/19 15:02:13;;;;;;;76.57;14.23;;;5.10;99.90;;;;;;5022584;28;20670;-86
2022/11/19 15:04:42;;;;;;;75.90;12.98;;;5.00;99.90;;;;;;5097229;28;20183;-86
2022/11/19 15:07:13;;;;;;;78.78;15.30;;;5.00;99.90;;;;;;5100138;28;20255;-86
2022/11/19 15:10:07;;;;;;;77.03;13.32;;;5.00;99.90;;;;;;5100817;28;20347;-86
2022/11/19 15:12:47;;;;;;;78.85;12.15;;;5.00;99.90;;;;;;5100633;28;20162;-85